Time;durP1;ratioP1;P1;durP2;ratioP2;P2;SDS_P1;SDS_P2;PMS_P1;PMS_P2;Temp;Humidity;BMP_temperature;BMP_pressure;BME280_temperature;BME280_humidity;BME280_pressure;Samples;Min_cycle;Max_cycle;Signal;HPM_P1;HPM_P2
2024/02/12 00:00:45;;;;;;;19.88;14.35;;;;;;;;;;4954663;28;20503;-47
2024/02/12 00:03:11;;;;;;;20.77;14.88;;;;;;;;;;4954183;28;20131;-46
2024/02/12 00:05:38;;;;;;;22.50;16.83;;;;;;;;;;4954995;28;20036;-48
2024/02/12 00:08:07;;;;;;;25.87;16.10;;;;;;;;;;4962425;28;20077;-47
2024/02/12 00:10:34;;;;;;;21.35;16.42;;;;;;;;;;4958178;28;20267;-48
2024/02/12 00:13:00;;;;;;;23.60;17.42;;;;;;;;;;4953931;28;20038;-47
2024/02/12 00:15:27;;;;;;;20.87;15.47;;;;;;;;;;4972211;28;20054;-47
2024/02/12 00:17:57;;;;;;;20.83;15.70;;;;;;;;;;4974325;28;20639;-46
2024/02/12 00:20:23;;;;;;;17.63;14.25;;;;;;;;;;4959041;28;20378;-46
2024/02/12 00:22:49;;;;;;;21.37;16.47;;;;;;;;;;4973718;28;20046;-46
2024/02/12 00:25:16;;;;;;;24.33;16.80;;;;;;;;;;4965694;28;20258;-50
2024/02/12 00:27:42;;;;;;;24.10;16.57;;;;;;;;;;4955933;28;20042;-47
2024/02/12 00:30:10;;;;;;;21.20;16.45;;;;;;;;;;4968906;28;20262;-46
2024/02/12 00:32:36;;;;;;;23.42;17.15;;;;;;;;;;4954608;28;20028;-47
2024/02/12 00:35:03;;;;;;;21.27;16.23;;;;;;;;;;4954460;28;20046;-47
2024/02/12 00:37:29;;;;;;;23.23;17.55;;;;;;;;;;4954127;28;20034;-47
2024/02/12 00:39:58;;;;;;;25.17;18.30;;;;;;;;;;4969551;28;20488;-47
2024/02/12 00:42:24;;;;;;;28.00;18.40;;;;;;;;;;4972960;28;20396;-47
2024/02/12 00:44:51;;;;;;;22.75;18.17;;;;;;;;;;4972013;28;20085;-47
2024/02/12 00:47:17;;;;;;;25.33;18.53;;;;;;;;;;4971342;28;20022;-47
2024/02/12 00:49:43;;;;;;;26.05;20.02;;;;;;;;;;4954757;28;20035;-46
2024/02/12 00:52:11;;;;;;;31.23;21.40;;;;;;;;;;4973318;28;20093;-48
2024/02/12 00:54:39;;;;;;;;;;;;;;;;;;4967675;28;20303;-47
2024/02/12 00:57:07;;;;;;;33.15;22.98;;;;;;;;;;4956552;28;19907;-47
2024/02/12 00:59:40;;;;;;;33.90;24.40;;;;;;;;;;4954137;28;20031;-47
2024/02/12 01:02:09;;;;;;;39.15;27.38;;;;;;;;;;4971944;28;20038;-47
2024/02/12 01:04:35;;;;;;;42.20;29.27;;;;;;;;;;4971636;28;20109;-46
2024/02/12 01:07:03;;;;;;;35.65;27.23;;;;;;;;;;4958801;28;20038;-47
2024/02/12 01:09:30;;;;;;;45.42;29.65;;;;;;;;;;4965197;28;20154;-47
2024/02/12 01:11:58;;;;;;;43.78;29.58;;;;;;;;;;4962989;28;20034;-50
2024/02/12 01:14:24;;;;;;;41.50;29.40;;;;;;;;;;4972600;28;20110;-47
2024/02/12 01:16:51;;;;;;;43.97;30.45;;;;;;;;;;4958887;28;20387;-46
2024/02/12 01:19:17;;;;;;;41.92;30.27;;;;;;;;;;4953784;28;20031;-47
2024/02/12 01:21:44;;;;;;;41.55;29.45;;;;;;;;;;4953881;28;20027;-47
2024/02/12 01:24:14;;;;;;;38.97;29.73;;;;;;;;;;4957633;28;20027;-47
2024/02/12 01:26:41;;;;;;;42.15;28.77;;;;;;;;;;4953678;28;20090;-47
2024/02/12 01:29:08;;;;;;;39.72;28.63;;;;;;;;;;4960857;28;20034;-46
2024/02/12 01:31:37;;;;;;;41.47;30.05;;;;;;;;;;4972983;28;20026;-46
2024/02/12 01:34:06;;;;;;;37.92;28.33;;;;;;;;;;4957053;28;20499;-47
2024/02/12 01:36:33;;;;;;;39.03;28.58;;;;;;;;;;4953472;28;20035;-47
2024/02/12 01:38:59;;;;;;;39.60;27.92;;;;;;;;;;4955068;28;20095;-47
2024/02/12 01:41:26;;;;;;;44.00;29.92;;;;;;;;;;4954039;28;20384;-47
2024/02/12 01:43:52;;;;;;;42.20;28.83;;;;;;;;;;4955874;28;20156;-47
2024/02/12 01:46:19;;;;;;;44.05;31.63;;;;;;;;;;4961560;28;20380;-50
2024/02/12 01:48:46;;;;;;;43.20;28.98;;;;;;;;;;4953414;28;20102;-47
2024/02/12 01:51:13;;;;;;;38.33;27.83;;;;;;;;;;4952730;28;20519;-47
2024/02/12 01:53:39;;;;;;;;;;;;;;;;;;4956194;28;20400;-48
2024/02/12 01:56:06;;;;;;;37.35;25.52;;;;;;;;;;4961163;28;19938;-47
2024/02/12 01:58:33;;;;;;;44.65;28.70;;;;;;;;;;4967139;28;20085;-47
2024/02/12 02:00:59;;;;;;;46.08;30.88;;;;;;;;;;4951744;29;20423;-47
2024/02/12 02:03:27;;;;;;;42.43;28.83;;;;;;;;;;4971997;28;20035;-47
2024/02/12 02:05:53;;;;;;;41.70;28.40;;;;;;;;;;4975321;28;20110;-46
2024/02/12 02:08:20;;;;;;;42.80;28.40;;;;;;;;;;4962535;28;20031;-47
2024/02/12 02:10:48;;;;;;;41.75;28.52;;;;;;;;;;4973910;28;20492;-47
2024/02/12 02:13:18;;;;;;;41.13;27.30;;;;;;;;;;4972294;28;20026;-47
2024/02/12 02:15:44;;;;;;;44.30;30.17;;;;;;;;;;4961870;28;20489;-48
2024/02/12 02:18:20;;;;;;;46.33;29.17;;;;;;;;;;4968595;28;20030;-47
2024/02/12 02:20:47;;;;;;;48.28;29.08;;;;;;;;;;4975728;28;20042;-48
2024/02/12 02:23:13;;;;;;;;;;;;;;;;;;4968336;28;20028;-48
2024/02/12 02:25:40;;;;;;;41.17;26.60;;;;;;;;;;4956278;28;19910;-48
2024/02/12 02:28:06;;;;;;;35.60;25.60;;;;;;;;;;4974433;28;20031;-49
2024/02/12 02:30:32;;;;;;;46.75;29.33;;;;;;;;;;4966491;28;20037;-48
2024/02/12 02:33:00;;;;;;;43.57;27.63;;;;;;;;;;4960007;28;20035;-47
2024/02/12 02:35:26;;;;;;;41.28;27.38;;;;;;;;;;4961282;28;20086;-50
2024/02/12 02:37:54;;;;;;;42.20;28.70;;;;;;;;;;4968762;28;20039;-47
2024/02/12 02:40:20;;;;;;;;;;;;;;;;;;4957948;28;20046;-47
2024/02/12 02:42:47;;;;;;;56.47;33.47;;;;;;;;;;4956522;28;19922;-49
2024/02/12 02:45:14;;;;;;;53.80;33.22;;;;;;;;;;4962108;28;20062;-47
2024/02/12 02:47:43;;;;;;;50.90;30.50;;;;;;;;;;4975493;28;20023;-47
2024/02/12 02:50:10;;;;;;;53.08;32.83;;;;;;;;;;4975655;28;20062;-47
2024/02/12 02:52:39;;;;;;;45.13;30.23;;;;;;;;;;4975698;28;20031;-48
2024/02/12 02:55:06;;;;;;;54.80;33.45;;;;;;;;;;4959982;28;20031;-49
2024/02/12 02:57:34;;;;;;;48.97;29.88;;;;;;;;;;4960235;28;20035;-50
2024/02/12 03:00:04;;;;;;;49.47;28.77;;;;;;;;;;4968070;28;20023;-50
2024/02/12 03:02:30;;;;;;;60.40;29.77;;;;;;;;;;4956994;28;20472;-47
2024/02/12 03:04:56;;;;;;;52.38;24.63;;;;;;;;;;4968186;28;20130;-49
2024/02/12 03:07:22;;;;;;;189.93;29.48;;;;;;;;;;4974845;28;20342;-47
2024/02/12 03:09:49;;;;;;;310.77;34.53;;;;;;;;;;4975254;28;20090;-53
2024/02/12 03:12:15;;;;;;;236.52;27.40;;;;;;;;;;4975172;28;20262;-47
2024/02/12 03:14:41;;;;;;;218.17;27.20;;;;;;;;;;4975483;28;20027;-51
2024/02/12 03:17:08;;;;;;;243.73;37.35;;;;;;;;;;4973225;28;20065;-48
2024/02/12 03:19:34;;;;;;;81.53;23.17;;;;;;;;;;4973873;28;20098;-47
2024/02/12 03:22:00;;;;;;;35.97;19.63;;;;;;;;;;4972559;28;20026;-47
2024/02/12 03:24:28;;;;;;;28.25;19.58;;;;;;;;;;4966950;28;20062;-47
2024/02/12 03:26:56;;;;;;;38.85;25.23;;;;;;;;;;4965749;28;20023;-47
2024/02/12 03:29:23;;;;;;;37.70;22.45;;;;;;;;;;4966343;28;20073;-47
2024/02/12 03:31:49;;;;;;;25.30;17.85;;;;;;;;;;4957069;28;20028;-47
2024/02/12 03:34:16;;;;;;;25.23;17.50;;;;;;;;;;4955820;28;20070;-47
2024/02/12 03:36:42;;;;;;;33.73;19.17;;;;;;;;;;4970073;28;20023;-47
2024/02/12 03:39:09;;;;;;;22.73;16.52;;;;;;;;;;4974400;28;20125;-48
2024/02/12 03:41:35;;;;;;;17.67;14.00;;;;;;;;;;4971719;28;20035;-47
2024/02/12 03:44:01;;;;;;;21.77;16.07;;;;;;;;;;4955603;28;20042;-48
2024/02/12 03:46:35;;;;;;;23.50;17.55;;;;;;;;;;4962400;28;20158;-48
2024/02/12 04:00:09;;;;;;;53.95;17.70;;;;;;;;;;4954876;28;20043;-47
2024/02/12 04:02:39;;;;;;;31.85;15.68;;;;;;;;;;4959155;28;20445;-47
2024/02/12 04:05:05;;;;;;;18.98;14.95;;;;;;;;;;4972012;28;20027;-52
2024/02/12 04:07:31;;;;;;;22.43;13.33;;;;;;;;;;4973113;28;20030;-47
2024/02/12 04:09:59;;;;;;;17.55;13.40;;;;;;;;;;4974403;28;20277;-49
2024/02/12 04:12:26;;;;;;;16.73;12.73;;;;;;;;;;4957055;28;20031;-47
2024/02/12 04:14:52;;;;;;;17.05;12.70;;;;;;;;;;4968910;28;20062;-48
2024/02/12 04:17:20;;;;;;;17.70;14.83;;;;;;;;;;4962727;28;20058;-48
2024/02/12 04:19:48;;;;;;;21.58;15.70;;;;;;;;;;4955025;28;20094;-48
2024/02/12 04:22:17;;;;;;;22.08;15.60;;;;;;;;;;4971384;28;20474;-48
2024/02/12 04:24:44;;;;;;;20.48;15.90;;;;;;;;;;4971640;28;20026;-48
2024/02/12 04:27:11;;;;;;;22.60;17.10;;;;;;;;;;4973357;28;20507;-47
2024/02/12 04:29:38;;;;;;;26.17;17.80;;;;;;;;;;4970649;28;20030;-47
2024/02/12 04:32:11;;;;;;;27.05;18.55;;;;;;;;;;4954823;28;20023;-47
2024/02/12 04:34:38;;;;;;;28.80;19.83;;;;;;;;;;4954850;28;20127;-47
2024/02/12 04:37:06;;;;;;;26.92;19.80;;;;;;;;;;4955589;28;20035;-47
2024/02/12 04:39:33;;;;;;;25.65;18.55;;;;;;;;;;5001614;23;20149;-46
2024/02/12 04:41:59;;;;;;;25.25;18.27;;;;;;;;;;4973944;28;20034;-46
2024/02/12 04:44:26;;;;;;;25.50;17.50;;;;;;;;;;4979072;28;20082;-47
2024/02/12 04:46:52;;;;;;;23.65;17.85;;;;;;;;;;4979644;28;20062;-46
2024/02/12 04:49:21;;;;;;;23.50;16.25;;;;;;;;;;4973228;28;20037;-44
2024/02/12 04:51:48;;;;;;;20.00;15.73;;;;;;;;;;4991420;28;20439;-47
2024/02/12 04:54:17;;;;;;;20.13;14.65;;;;;;;;;;4991379;28;20066;-49
2024/02/12 04:56:43;;;;;;;18.48;14.55;;;;;;;;;;4991905;28;20042;-47
2024/02/12 04:59:15;;;;;;;17.53;13.77;;;;;;;;;;4978185;28;20059;-47
2024/02/12 05:01:41;;;;;;;15.45;11.75;;;;;;;;;;4992293;28;20061;-47
2024/02/12 05:04:07;;;;;;;15.48;12.35;;;;;;;;;;4992789;28;20037;-46
2024/02/12 05:06:36;;;;;;;14.70;10.23;;;;;;;;;;4992820;28;20501;-48
2024/02/12 05:09:06;;;;;;;13.45;8.98;;;;;;;;;;4991566;28;20026;-47
2024/02/12 05:11:33;;;;;;;14.15;10.05;;;;;;;;;;4992790;28;20023;-47
2024/02/12 05:14:00;;;;;;;25.67;10.18;;;;;;;;;;4991323;28;20022;-45
2024/02/12 05:16:32;;;;;;;10.90;8.15;;;;;;;;;;4991048;28;20088;-46
2024/02/12 05:24:35;;;;;;;10.88;8.65;;;;;;;;;;4991486;28;20026;-47
2024/02/12 05:27:02;;;;;;;15.68;9.35;;;;;;;;;;4990730;28;20494;-48
2024/02/12 05:29:28;;;;;;;11.23;9.57;;;;;;;;;;4992136;28;20038;-48
2024/02/12 05:31:54;;;;;;;11.37;8.97;;;;;;;;;;4991322;28;20438;-47
2024/02/12 05:34:21;;;;;;;11.05;7.60;;;;;;;;;;4992519;28;20042;-48
2024/02/12 05:36:48;;;;;;;10.95;8.32;;;;;;;;;;4992300;28;20038;-46
2024/02/12 05:39:16;;;;;;;10.80;8.52;;;;;;;;;;4992309;28;20081;-45
2024/02/12 05:41:43;;;;;;;11.98;8.93;;;;;;;;;;4992665;28;20026;-45
2024/02/12 05:44:09;;;;;;;10.35;7.63;;;;;;;;;;4992495;28;20454;-47
2024/02/12 05:46:36;;;;;;;10.70;8.13;;;;;;;;;;4992341;28;20054;-46
2024/02/12 05:49:03;;;;;;;;;;;;;;;;;;4992752;28;20471;-47
2024/02/12 05:51:29;;;;;;;11.80;7.65;;;;;;;;;;4991097;28;19914;-46
2024/02/12 05:53:56;;;;;;;10.73;8.53;;;;;;;;;;4991143;28;20063;-49
2024/02/12 05:56:22;;;;;;;11.43;7.45;;;;;;;;;;4992069;28;20487;-47
2024/02/12 05:58:49;;;;;;;12.15;8.68;;;;;;;;;;4990954;28;20038;-47
2024/02/12 06:01:15;;;;;;;11.40;8.35;;;;;;;;;;4992250;28;20037;-47
2024/02/12 06:03:42;;;;;;;10.88;8.20;;;;;;;;;;4992274;28;20101;-47
2024/02/12 06:06:08;;;;;;;11.23;8.75;;;;;;;;;;4992018;28;20036;-47
2024/02/12 06:08:35;;;;;;;12.82;10.07;;;;;;;;;;4992219;28;20080;-47
2024/02/12 06:11:02;;;;;;;15.80;12.05;;;;;;;;;;4991111;28;20439;-47
2024/02/12 06:13:28;;;;;;;15.95;13.48;;;;;;;;;;4992282;28;20026;-47
2024/02/12 06:15:54;;;;;;;19.47;13.20;;;;;;;;;;4990680;28;20411;-47
2024/02/12 06:18:21;;;;;;;13.15;10.68;;;;;;;;;;4992062;28;20034;-47
2024/02/12 06:20:48;;;;;;;15.82;11.63;;;;;;;;;;4992140;28;20038;-47
2024/02/12 06:23:14;;;;;;;12.05;9.95;;;;;;;;;;4992015;28;20029;-49
2024/02/12 06:25:42;;;;;;;12.73;7.50;;;;;;;;;;4991779;28;20455;-47
2024/02/12 06:28:11;;;;;;;10.00;7.35;;;;;;;;;;4990734;28;20026;-50
2024/02/12 06:30:37;;;;;;;9.18;7.40;;;;;;;;;;4991891;28;20037;-47
2024/02/12 06:33:04;;;;;;;9.32;6.63;;;;;;;;;;4990785;28;20085;-47
2024/02/12 06:35:30;;;;;;;8.33;6.00;;;;;;;;;;4990522;28;20036;-47
2024/02/12 06:38:00;;;;;;;11.00;6.38;;;;;;;;;;4991674;28;20323;-53
2024/02/12 06:40:26;;;;;;;10.13;7.03;;;;;;;;;;4995419;28;20034;-48
2024/02/12 06:42:52;;;;;;;11.38;7.47;;;;;;;;;;4995483;28;20430;-50
2024/02/12 06:45:19;;;;;;;9.55;7.53;;;;;;;;;;4994178;28;20046;-48
2024/02/12 06:47:45;;;;;;;10.20;7.85;;;;;;;;;;4995492;28;20030;-47
2024/02/12 06:50:15;;;;;;;10.30;7.30;;;;;;;;;;4994166;28;20034;-47
2024/02/12 06:52:41;;;;;;;12.15;7.55;;;;;;;;;;4995328;28;20026;-48
2024/02/12 06:55:11;;;;;;;12.38;7.10;;;;;;;;;;4993946;28;20121;-50
2024/02/12 06:57:38;;;;;;;11.27;7.85;;;;;;;;;;4995428;28;20035;-50
2024/02/12 07:00:05;;;;;;;9.75;7.65;;;;;;;;;;4995234;28;20125;-49
2024/02/12 07:02:35;;;;;;;10.15;8.25;;;;;;;;;;4995192;28;20063;-52
2024/02/12 07:05:03;;;;;;;13.63;8.63;;;;;;;;;;4995136;28;20085;-55
2024/02/12 07:07:32;;;;;;;11.13;8.57;;;;;;;;;;4995355;28;20026;-50
2024/02/12 07:09:59;;;;;;;11.48;8.55;;;;;;;;;;4995002;28;20402;-50
2024/02/12 07:12:26;;;;;;;11.02;8.38;;;;;;;;;;4993690;28;20117;-49
2024/02/12 07:14:52;;;;;;;10.73;7.53;;;;;;;;;;4993740;28;20058;-50
2024/02/12 07:17:19;;;;;;;13.53;8.20;;;;;;;;;;4994840;28;20103;-47
2024/02/12 07:19:51;;;;;;;11.48;7.85;;;;;;;;;;4994787;28;20034;-49
2024/02/12 07:22:21;;;;;;;12.07;8.43;;;;;;;;;;4994831;28;20030;-49
2024/02/12 07:24:51;;;;;;;11.60;8.27;;;;;;;;;;4994778;28;20045;-47
2024/02/12 07:27:21;;;;;;;11.45;7.63;;;;;;;;;;4994646;28;20034;-48
2024/02/12 07:29:47;;;;;;;10.68;8.30;;;;;;;;;;4993317;28;20549;-48
2024/02/12 07:32:14;;;;;;;9.40;7.80;;;;;;;;;;4994649;28;20407;-51
2024/02/12 07:34:41;;;;;;;12.40;8.20;;;;;;;;;;4994555;28;20026;-49
2024/02/12 07:37:07;;;;;;;14.27;10.13;;;;;;;;;;4994455;28;20057;-47
2024/02/12 07:39:34;;;;;;;13.07;8.80;;;;;;;;;;4993210;28;20058;-47
2024/02/12 07:42:00;;;;;;;15.50;11.30;;;;;;;;;;4994384;28;20030;-48
2024/02/12 07:44:29;;;;;;;14.07;10.07;;;;;;;;;;4992963;28;20042;-47
2024/02/12 07:46:57;;;;;;;17.85;11.65;;;;;;;;;;4992889;28;20392;-46
2024/02/12 07:49:23;;;;;;;24.33;14.88;;;;;;;;;;4994255;28;20037;-46
2024/02/12 07:51:50;;;;;;;24.42;16.27;;;;;;;;;;4993568;28;20027;-48
2024/02/12 07:54:17;;;;;;;27.38;17.63;;;;;;;;;;4993016;28;20111;-49
2024/02/12 07:56:47;;;;;;;33.60;17.10;;;;;;;;;;4994063;28;20042;-52
2024/02/12 07:59:13;;;;;;;27.75;17.63;;;;;;;;;;4994015;28;20070;-47
2024/02/12 08:01:40;;;;;;;28.30;19.35;;;;;;;;;;4992792;28;20368;-47
2024/02/12 08:04:06;;;;;;;33.83;21.60;;;;;;;;;;4993844;28;20503;-50
2024/02/12 08:06:32;;;;;;;28.98;19.88;;;;;;;;;;4993882;28;20039;-47
2024/02/12 08:08:59;;;;;;;31.13;21.80;;;;;;;;;;4993866;28;20030;-47
2024/02/12 08:11:25;;;;;;;35.13;20.97;;;;;;;;;;4993878;28;20032;-50
2024/02/12 08:13:51;;;;;;;36.10;23.35;;;;;;;;;;4993832;28;20026;-47
2024/02/12 08:16:19;;;;;;;33.00;22.27;;;;;;;;;;4992349;28;20030;-47
2024/02/12 08:18:46;;;;;;;40.75;24.35;;;;;;;;;;4993702;28;20043;-46
2024/02/12 08:21:12;;;;;;;35.15;24.48;;;;;;;;;;4993874;28;20183;-47
2024/02/12 08:23:38;;;;;;;33.42;22.38;;;;;;;;;;4993617;28;20031;-51
2024/02/12 08:26:05;;;;;;;36.67;23.10;;;;;;;;;;4993544;28;20100;-51
2024/02/12 08:28:31;;;;;;;31.77;23.67;;;;;;;;;;4993548;28;20026;-50
2024/02/12 08:30:58;;;;;;;31.05;21.08;;;;;;;;;;4993561;28;20117;-47
2024/02/12 08:33:26;;;;;;;32.83;22.63;;;;;;;;;;4992363;28;20491;-49
2024/02/12 08:35:52;;;;;;;33.00;23.40;;;;;;;;;;4993381;28;20398;-47
2024/02/12 08:38:18;;;;;;;31.33;22.67;;;;;;;;;;4993268;28;20118;-49
2024/02/12 08:40:45;;;;;;;32.03;21.70;;;;;;;;;;4992218;28;20038;-47
2024/02/12 08:43:11;;;;;;;36.40;25.85;;;;;;;;;;4993185;28;20053;-49
2024/02/12 08:45:39;;;;;;;33.55;21.38;;;;;;;;;;4993154;28;20035;-47
2024/02/12 08:48:06;;;;;;;42.47;25.77;;;;;;;;;;4991848;28;20078;-48
2024/02/12 08:50:34;;;;;;;51.70;29.80;;;;;;;;;;4993259;28;20030;-48
2024/02/12 08:53:01;;;;;;;58.20;35.35;;;;;;;;;;4992961;28;20035;-49
2024/02/12 08:55:27;;;;;;;36.25;24.85;;;;;;;;;;4992734;28;20037;-50
2024/02/12 08:57:54;;;;;;;34.58;23.77;;;;;;;;;;4993015;28;20472;-50
2024/02/12 09:00:21;;;;;;;;;;;;;;;;;;4993448;28;20502;-48
2024/02/12 09:02:48;;;;;;;32.92;23.02;;;;;;;;;;4992881;28;19914;-47
2024/02/12 09:05:14;;;;;;;29.30;21.37;;;;;;;;;;4975337;28;20026;-47
2024/02/12 09:07:41;;;;;;;28.33;19.33;;;;;;;;;;4992852;28;20820;-49
2024/02/12 09:10:09;;;;;;;23.20;16.47;;;;;;;;;;4992815;28;20034;-47
2024/02/12 09:12:38;;;;;;;21.80;14.25;;;;;;;;;;4992824;28;20793;-47
2024/02/12 09:15:08;;;;;;;19.83;14.85;;;;;;;;;;4992841;28;20076;-47
2024/02/12 09:17:34;;;;;;;17.45;12.95;;;;;;;;;;4992803;28;20380;-47
2024/02/12 09:20:02;;;;;;;17.50;12.98;;;;;;;;;;4991463;28;20065;-47
2024/02/12 09:22:28;;;;;;;;;;;;;;;;;;4993129;28;20038;-48
2024/02/12 09:24:54;;;;;;;19.88;13.23;;;;;;;;;;4992528;28;20345;-50
2024/02/12 09:27:20;;;;;;;14.02;11.18;;;;;;;;;;4992524;28;20446;-48
2024/02/12 09:29:47;;;;;;;18.23;11.82;;;;;;;;;;4992708;28;20034;-49
2024/02/12 09:32:13;;;;;;;;;;;;;;;;;;4992988;28;20479;-50
2024/02/12 09:34:40;;;;;;;18.95;14.13;;;;;;;;;;4992483;28;19909;-51
2024/02/12 09:37:06;;;;;;;16.63;13.40;;;;;;;;;;4992294;28;20026;-47
2024/02/12 09:39:33;;;;;;;20.65;15.30;;;;;;;;;;4992302;28;20038;-47
2024/02/12 09:42:01;;;;;;;22.58;14.02;;;;;;;;;;4991167;28;20034;-50
2024/02/12 09:44:27;;;;;;;;;;;;;;;;;;4991528;28;20045;-47
2024/02/12 09:46:57;;;;;;;22.35;14.63;;;;;;;;;;4991014;28;19909;-48
2024/02/12 09:49:23;;;;;;;22.25;15.35;;;;;;;;;;4991042;28;20030;-48
2024/02/12 09:51:53;;;;;;;24.43;17.80;;;;;;;;;;4992327;28;20149;-47
2024/02/12 09:54:21;;;;;;;25.48;17.77;;;;;;;;;;4991004;28;20030;-48
2024/02/12 09:56:48;;;;;;;22.83;18.00;;;;;;;;;;4990854;28;20042;-47
2024/02/12 09:59:14;;;;;;;24.35;17.38;;;;;;;;;;4992206;28;20038;-50
2024/02/12 10:01:42;;;;;;;30.07;19.77;;;;;;;;;;4992147;28;20022;-49
2024/02/12 10:04:08;;;;;;;25.48;17.30;;;;;;;;;;4992098;28;20045;-51
2024/02/12 10:06:36;;;;;;;28.47;19.23;;;;;;;;;;4992078;28;20026;-50
2024/02/12 10:09:05;;;;;;;24.45;17.58;;;;;;;;;;4990973;28;20391;-48
2024/02/12 10:11:32;;;;;;;27.05;19.17;;;;;;;;;;4992131;28;20026;-49
2024/02/12 10:14:04;;;;;;;35.78;22.10;;;;;;;;;;4992969;28;20032;-49
2024/02/12 10:16:33;;;;;;;28.42;22.35;;;;;;;;;;4995994;28;20041;-49
2024/02/12 10:19:00;;;;;;;30.60;21.17;;;;;;;;;;4995956;28;20023;-48
2024/02/12 10:21:26;;;;;;;25.88;20.67;;;;;;;;;;4996038;28;20038;-50
2024/02/12 10:23:53;;;;;;;28.75;21.88;;;;;;;;;;4995918;28;20410;-49
2024/02/12 10:26:22;;;;;;;35.55;22.75;;;;;;;;;;4994584;28;20041;-50
2024/02/12 10:28:53;;;;;;;28.17;21.00;;;;;;;;;;4995732;28;20034;-49
2024/02/12 10:31:20;;;;;;;29.65;20.88;;;;;;;;;;4995749;28;20054;-47
2024/02/12 10:33:46;;;;;;;25.08;19.33;;;;;;;;;;4994569;28;20523;-47
2024/02/12 10:36:14;;;;;;;28.67;21.80;;;;;;;;;;4995583;28;20387;-47
2024/02/12 10:38:41;;;;;;;28.35;19.63;;;;;;;;;;4997256;22;20495;-50
2024/02/12 10:41:07;;;;;;;;;;;;;;;;;;4976503;28;20059;-48
2024/02/12 10:43:33;;;;;;;28.27;20.20;;;;;;;;;;4975905;28;19922;-49
2024/02/12 10:46:03;;;;;;;30.90;19.05;;;;;;;;;;4975786;28;20027;-46
2024/02/12 10:48:33;;;;;;;26.23;18.17;;;;;;;;;;4972623;28;20121;-47
2024/02/12 10:51:00;;;;;;;25.02;18.60;;;;;;;;;;4955385;28;20027;-48
2024/02/12 10:53:28;;;;;;;30.80;19.33;;;;;;;;;;4955330;29;20522;-51
2024/02/12 10:55:55;;;;;;;22.50;17.63;;;;;;;;;;4955115;29;20067;-48
2024/02/12 10:58:21;;;;;;;23.65;18.05;;;;;;;;;;4956621;28;20381;-48
2024/02/12 11:00:56;;;;;;;26.50;20.20;;;;;;;;;;4955271;29;20043;-48
2024/02/12 11:03:35;;;;;;;22.08;18.60;;;;;;;;;;4956378;28;20500;-48
2024/02/12 11:06:08;;;;;;;35.63;20.50;;;;;;;;;;4954963;28;20523;-50
2024/02/12 11:08:36;;;;;;;23.00;17.20;;;;;;;;;;4956288;28;20050;-49
2024/02/12 11:11:03;;;;;;;19.05;16.23;;;;;;;;;;4956216;28;20050;-48
2024/02/12 11:13:29;;;;;;;;;;;;;;;;;;4956532;28;20039;-47
2024/02/12 11:15:58;;;;;;;22.92;18.10;;;;;;;;;;4956585;28;20001;-46
2024/02/12 11:18:26;;;;;;;23.75;18.55;;;;;;;;;;4954969;28;20038;-48
2024/02/12 11:20:56;;;;;;;24.48;18.90;;;;;;;;;;4963559;28;20030;-47
2024/02/12 11:23:23;;;;;;;28.52;18.80;;;;;;;;;;4960052;28;20069;-48
2024/02/12 11:25:49;;;;;;;24.42;19.02;;;;;;;;;;4953101;28;20020;-50
2024/02/12 11:28:16;;;;;;;23.80;19.03;;;;;;;;;;4953258;28;20023;-48
2024/02/12 11:30:49;;;;;;;21.70;15.98;;;;;;;;;;4953375;28;20491;-47
2024/02/12 11:33:16;;;;;;;29.05;16.50;;;;;;;;;;4951784;29;20067;-46
2024/02/12 11:35:42;;;;;;;19.67;16.42;;;;;;;;;;4954045;28;20114;-46
2024/02/12 11:38:08;;;;;;;21.60;14.90;;;;;;;;;;4951845;28;20035;-47
2024/02/12 11:40:35;;;;;;;16.10;13.67;;;;;;;;;;4964575;28;20038;-49
2024/02/12 11:43:01;;;;;;;18.90;14.87;;;;;;;;;;4955085;28;20266;-48
2024/02/12 11:45:27;;;;;;;14.43;11.43;;;;;;;;;;4956704;28;20031;-49
2024/02/12 11:47:53;;;;;;;16.45;12.85;;;;;;;;;;4969392;28;20027;-47
2024/02/12 11:50:26;;;;;;;16.98;13.15;;;;;;;;;;4973190;28;20027;-54
2024/02/12 11:52:53;;;;;;;13.10;11.13;;;;;;;;;;4972148;28;20034;-47
2024/02/12 11:55:19;;;;;;;19.08;12.32;;;;;;;;;;4934324;29;20095;-48
2024/02/12 11:57:46;;;;;;;15.57;11.98;;;;;;;;;;4969035;28;20565;-49
2024/02/12 12:00:16;;;;;;;14.00;11.68;;;;;;;;;;4961326;28;20373;-49
2024/02/12 12:02:46;;;;;;;20.05;13.88;;;;;;;;;;4972959;28;20174;-48
2024/02/12 12:05:14;;;;;;;14.68;12.07;;;;;;;;;;4970996;28;20105;-48
2024/02/12 12:07:41;;;;;;;13.35;10.82;;;;;;;;;;4954074;28;20126;-47
2024/02/12 12:10:10;;;;;;;14.77;11.93;;;;;;;;;;4969870;28;20154;-47
2024/02/12 12:12:39;;;;;;;16.60;11.90;;;;;;;;;;4972665;28;20031;-47
2024/02/12 12:15:06;;;;;;;15.02;11.95;;;;;;;;;;4966993;28;20451;-48
2024/02/12 12:17:33;;;;;;;48.70;27.30;;;;;;;;;;4972635;28;20074;-48
2024/02/12 12:20:01;;;;;;;12.85;10.10;;;;;;;;;;4967673;28;20058;-47
2024/02/12 12:22:30;;;;;;;13.05;9.98;;;;;;;;;;4959472;28;20500;-50
2024/02/12 12:24:59;;;;;;;12.35;9.73;;;;;;;;;;4952853;28;20031;-51
2024/02/12 12:27:26;;;;;;;14.00;9.77;;;;;;;;;;4954168;28;20110;-49
2024/02/12 12:29:57;;;;;;;10.25;8.13;;;;;;;;;;4952126;29;20488;-48
2024/02/12 12:32:27;;;;;;;10.07;8.32;;;;;;;;;;4971018;28;20027;-48
2024/02/12 12:34:55;;;;;;;12.82;8.27;;;;;;;;;;4972555;28;20035;-51
2024/02/12 12:37:22;;;;;;;8.07;6.57;;;;;;;;;;4957094;28;20046;-47
2024/02/12 12:39:48;;;;;;;7.65;5.80;;;;;;;;;;4955188;28;20039;-51
2024/02/12 12:42:14;;;;;;;8.23;6.65;;;;;;;;;;4953314;28;20384;-50
2024/02/12 12:44:41;;;;;;;7.05;6.10;;;;;;;;;;4953130;28;20031;-49
2024/02/12 12:47:08;;;;;;;11.20;7.85;;;;;;;;;;4968643;28;20041;-47
2024/02/12 12:49:34;;;;;;;7.00;6.22;;;;;;;;;;4970073;28;20085;-48
2024/02/12 12:52:02;;;;;;;7.13;6.40;;;;;;;;;;4951997;28;20035;-47
2024/02/12 12:54:28;;;;;;;6.60;5.90;;;;;;;;;;4952669;29;20102;-47
2024/02/12 12:56:54;;;;;;;7.60;6.82;;;;;;;;;;4966168;28;20086;-48
2024/02/12 12:59:21;;;;;;;7.85;6.07;;;;;;;;;;4964530;28;20027;-48
2024/02/12 13:01:47;;;;;;;8.38;5.93;;;;;;;;;;4956503;28;20294;-49
2024/02/12 13:04:14;;;;;;;6.45;5.80;;;;;;;;;;4952592;28;20485;-47
2024/02/12 13:06:42;;;;;;;7.32;5.45;;;;;;;;;;4966493;28;20062;-48
2024/02/12 13:09:09;;;;;;;7.00;5.40;;;;;;;;;;4971448;28;20505;-49
2024/02/12 13:11:38;;;;;;;6.35;5.75;;;;;;;;;;4971807;28;20398;-49
2024/02/12 13:14:07;;;;;;;8.27;5.85;;;;;;;;;;4952647;28;20500;-49
2024/02/12 13:16:36;;;;;;;7.18;5.78;;;;;;;;;;4963642;28;20081;-50
2024/02/12 13:19:04;;;;;;;8.18;6.10;;;;;;;;;;4952799;28;20035;-50
2024/02/12 13:21:31;;;;;;;6.95;5.68;;;;;;;;;;4961817;28;20031;-48
2024/02/12 13:23:57;;;;;;;5.72;5.13;;;;;;;;;;4955977;28;20047;-53
2024/02/12 13:26:24;;;;;;;12.27;6.22;;;;;;;;;;4971124;28;20049;-52
2024/02/12 13:28:52;;;;;;;;;;;;;;;;;;4953245;28;20506;-49
2024/02/12 13:31:23;;;;;;;6.38;5.78;;;;;;;;;;4967505;28;19910;-52
2024/02/12 13:33:53;;;;;;;8.32;5.90;;;;;;;;;;4971518;28;20038;-50
2024/02/12 13:36:21;;;;;;;6.25;5.65;;;;;;;;;;4963470;28;20039;-48
2024/02/12 13:38:47;;;;;;;9.40;5.88;;;;;;;;;;4964768;28;20142;-48
2024/02/12 13:41:14;;;;;;;10.82;7.10;;;;;;;;;;4963850;28;20062;-51
2024/02/12 13:43:40;;;;;;;6.82;5.28;;;;;;;;;;4956737;28;20113;-49
2024/02/12 13:46:07;;;;;;;5.72;4.97;;;;;;;;;;4961362;28;20043;-49
2024/02/12 13:48:33;;;;;;;5.15;4.53;;;;;;;;;;4961351;28;20026;-48
2024/02/12 13:51:00;;;;;;;5.47;4.90;;;;;;;;;;4968463;28;20041;-48
2024/02/12 13:53:27;;;;;;;7.10;5.38;;;;;;;;;;4952018;29;20040;-47
2024/02/12 13:55:54;;;;;;;6.63;6.03;;;;;;;;;;4957959;28;20069;-49
2024/02/12 13:58:24;;;;;;;7.90;5.85;;;;;;;;;;4970858;28;20038;-49
2024/02/12 14:00:50;;;;;;;6.32;5.60;;;;;;;;;;4963743;28;20512;-48
2024/02/12 14:03:17;;;;;;;7.68;6.03;;;;;;;;;;4950526;28;20519;-49
2024/02/12 14:05:43;;;;;;;7.05;5.88;;;;;;;;;;4957359;28;20027;-47
2024/02/12 14:08:10;;;;;;;11.38;7.97;;;;;;;;;;4963401;28;20031;-52
2024/02/12 14:10:36;;;;;;;6.45;5.40;;;;;;;;;;4961280;28;20034;-51
2024/02/12 14:13:03;;;;;;;8.18;5.50;;;;;;;;;;4971452;28;20071;-48
2024/02/12 14:15:34;;;;;;;;;;;;;;;;;;4966712;28;20030;-49
2024/02/12 14:18:04;;;;;;;6.22;5.55;;;;;;;;;;4950448;29;20222;-49
2024/02/12 14:20:30;;;;;;;8.52;5.15;;;;;;;;;;4961194;28;20357;-51
2024/02/12 14:22:59;;;;;;;6.80;5.78;;;;;;;;;;4953716;28;20039;-52
2024/02/12 14:25:33;;;;;;;15.40;5.55;;;;;;;;;;4951388;28;20027;-47
2024/02/12 14:28:00;;;;;;;9.48;5.32;;;;;;;;;;4959793;28;20030;-51
2024/02/12 14:30:26;;;;;;;;;;;;;;;;;;4970273;28;20031;-51
2024/02/12 14:32:53;;;;;;;8.02;6.32;;;;;;;;;;4956245;28;20048;-47
2024/02/12 14:35:20;;;;;;;9.00;5.50;;;;;;;;;;4958899;28;20031;-46
2024/02/12 14:37:46;;;;;;;8.55;6.03;;;;;;;;;;4970030;28;20034;-46
2024/02/12 14:40:13;;;;;;;7.50;4.78;;;;;;;;;;4969012;28;20563;-46
2024/02/12 14:42:43;;;;;;;6.38;5.45;;;;;;;;;;4960047;28;20101;-48
2024/02/12 14:45:15;;;;;;;7.93;5.78;;;;;;;;;;4962155;28;20036;-46